createdAt,value
2018-04-14T00:00:26.730Z,99.99
2018-04-14T00:01:36.011Z,99.99
2018-04-14T00:02:43.072Z,99.99
2018-04-14T00:03:50.232Z,99.99
2018-04-14T00:04:58.312Z,99.99
2018-04-14T00:06:06.360Z,99.99
2018-04-14T00:07:14.465Z,99.99
2018-04-14T00:08:22.471Z,99.99
2018-04-14T00:09:30.535Z,99.99
2018-04-14T00:10:38.577Z,99.99
2018-04-14T00:11:46.652Z,99.99
2018-04-14T00:12:55.370Z,99.99
2018-04-14T00:14:02.749Z,99.99
2018-04-14T00:15:10.800Z,99.99
2018-04-14T00:16:18.874Z,99.99
2018-04-14T00:17:26.932Z,99.99
2018-04-14T00:18:35.620Z,99.99
2018-04-14T00:19:43.055Z,99.99
2018-04-14T00:20:51.070Z,99.99
2018-04-14T00:21:59.152Z,99.99
2018-04-14T00:23:07.200Z,99.99
2018-04-14T00:24:15.257Z,99.99
2018-04-14T00:25:23.317Z,99.99
2018-04-14T00:26:31.362Z,99.99
2018-04-14T00:27:40.106Z,99.99
2018-04-14T00:28:48.181Z,99.99
2018-04-14T00:29:56.170Z,99.99
2018-04-14T00:31:05.203Z,99.99
2018-04-14T00:32:13.104Z,99.99
2018-04-14T00:33:20.374Z,99.99
2018-04-14T00:34:28.410Z,99.99
2018-04-14T00:35:36.493Z,99.99
2018-04-14T00:36:44.527Z,99.99
2018-04-14T00:37:52.477Z,99.99
2018-04-14T00:39:00.657Z,99.99
2018-04-14T00:40:08.599Z,99.99
2018-04-14T00:41:16.760Z,99.99
2018-04-14T00:42:25.621Z,99.99
2018-04-14T00:43:32.846Z,99.99
2018-04-14T00:44:40.908Z,99.99
2018-04-14T00:45:48.977Z,99.99
2018-04-14T00:46:57.942Z,99.99
2018-04-14T00:48:05.149Z,99.99
2018-04-14T00:49:13.997Z,99.99
2018-04-14T00:50:21.220Z,99.99
2018-04-14T00:51:28.627Z,99.99
2018-04-14T00:52:36.702Z,99.99
2018-04-14T00:53:44.757Z,99.99
2018-04-14T00:54:52.800Z,99.99
2018-04-14T00:56:00.832Z,99.99
2018-04-14T00:57:08.921Z,99.99
2018-04-14T00:58:16.960Z,99.99
2018-04-14T00:59:25.025Z,99.99
2018-04-14T01:00:33.074Z,99.99
2018-04-14T01:01:41.101Z,99.99
2018-04-14T01:02:49.212Z,99.99
2018-04-14T01:03:57.253Z,99.99
2018-04-14T01:05:05.298Z,99.99
2018-04-14T01:06:13.364Z,99.99
2018-04-14T01:07:21.398Z,99.99
2018-04-14T01:08:29.471Z,99.99
2018-04-14T01:09:37.536Z,99.99
2018-04-14T01:10:45.591Z,99.99
2018-04-14T01:11:53.654Z,99.99
2018-04-14T01:13:01.694Z,99.99
2018-04-14T01:14:09.754Z,99.99
2018-04-14T01:15:17.808Z,99.99
2018-04-14T01:16:25.868Z,99.99
2018-04-14T01:17:33.927Z,99.99
2018-04-14T01:18:41.978Z,99.99
2018-04-14T01:19:50.056Z,99.99
2018-04-14T01:20:58.111Z,99.99
2018-04-14T01:22:06.147Z,99.99
2018-04-14T01:23:14.213Z,99.99
2018-04-14T01:24:22.264Z,99.99
2018-04-14T01:25:30.322Z,99.99
2018-04-14T01:26:38.381Z,99.99
2018-04-14T01:27:46.441Z,99.99
2018-04-14T01:28:54.484Z,99.99
2018-04-14T01:30:02.538Z,99.99
2018-04-14T01:31:10.599Z,99.99
2018-04-14T01:32:18.666Z,99.99
2018-04-14T01:33:26.734Z,99.99
2018-04-14T01:34:34.769Z,99.99
2018-04-14T01:35:42.834Z,99.99
2018-04-14T01:36:50.865Z,99.99
2018-04-14T01:37:58.950Z,99.99
2018-04-14T01:39:06.988Z,99.99
2018-04-14T01:40:15.045Z,99.99
2018-04-14T01:41:23.122Z,99.99
2018-04-14T01:42:31.151Z,99.99
2018-04-14T01:43:39.223Z,99.99
2018-04-14T01:44:47.270Z,99.99
2018-04-14T01:45:55.344Z,99.99
2018-04-14T01:47:03.392Z,99.99
2018-04-14T01:48:11.413Z,99.99
2018-04-14T01:49:19.505Z,99.99
2018-04-14T01:50:27.548Z,99.99
2018-04-14T01:51:35.609Z,99.99
2018-04-14T01:52:43.688Z,99.99
2018-04-14T01:53:51.711Z,99.99
2018-04-14T01:54:59.790Z,99.99
2018-04-14T01:56:07.848Z,99.99
2018-04-14T01:57:15.904Z,99.99
2018-04-14T01:58:23.962Z,99.99
2018-04-14T01:59:32.019Z,99.99
2018-04-14T02:00:40.068Z,99.99
2018-04-14T02:01:48.125Z,99.99
2018-04-14T02:02:56.180Z,99.99
2018-04-14T02:04:04.232Z,99.99
2018-04-14T02:05:12.298Z,99.99
2018-04-14T02:06:20.342Z,99.99
2018-04-14T02:07:28.404Z,99.99
2018-04-14T02:08:36.465Z,99.99
2018-04-14T02:09:44.517Z,99.99
2018-04-14T02:10:52.578Z,99.99
2018-04-14T02:12:00.616Z,99.99
2018-04-14T02:13:08.680Z,99.99
2018-04-14T02:14:16.737Z,99.99
2018-04-14T02:15:24.806Z,99.99
2018-04-14T02:16:32.853Z,99.99
2018-04-14T02:17:40.893Z,99.99
2018-04-14T02:18:48.967Z,99.99
2018-04-14T02:19:57.056Z,99.99
2018-04-14T02:21:05.083Z,99.99
2018-04-14T02:22:13.137Z,99.99
2018-04-14T02:23:21.169Z,99.99
2018-04-14T02:24:29.246Z,99.99
2018-04-14T02:25:37.294Z,99.99
2018-04-14T02:26:45.364Z,99.99
2018-04-14T02:27:53.409Z,99.99
2018-04-14T02:29:01.456Z,99.99
2018-04-14T02:30:09.544Z,99.99
2018-04-14T02:31:17.594Z,99.99
2018-04-14T02:32:25.628Z,99.99
2018-04-14T02:33:33.699Z,99.99
2018-04-14T02:34:41.747Z,99.99
2018-04-14T02:35:49.811Z,99.99
2018-04-14T02:36:57.861Z,99.99
2018-04-14T02:38:05.912Z,99.99
2018-04-14T02:39:13.978Z,99.99
2018-04-14T02:40:22.039Z,99.99
2018-04-14T02:41:30.104Z,99.99
2018-04-14T02:42:38.148Z,99.99
2018-04-14T02:43:46.204Z,99.99
2018-04-14T02:44:54.260Z,99.99
2018-04-14T02:46:02.316Z,99.99
2018-04-14T02:47:10.377Z,99.99
2018-04-14T02:48:18.414Z,99.99
2018-04-14T02:49:26.484Z,99.99
2018-04-14T02:50:34.551Z,99.99
2018-04-14T02:51:42.589Z,99.99
2018-04-14T02:52:50.641Z,99.99
2018-04-14T02:53:58.701Z,99.99
2018-04-14T02:55:06.762Z,99.99
2018-04-14T02:56:14.817Z,99.99
2018-04-14T02:57:22.859Z,99.99
2018-04-14T02:58:30.904Z,99.99
2018-04-14T02:59:38.978Z,99.99
2018-04-14T03:00:47.038Z,99.99
2018-04-14T03:01:55.090Z,99.99
2018-04-14T03:03:03.153Z,99.99
2018-04-14T03:04:11.177Z,99.99
2018-04-14T03:05:19.269Z,99.99
2018-04-14T03:06:27.319Z,99.99
2018-04-14T03:07:35.383Z,99.99
2018-04-14T03:08:43.438Z,99.99
2018-04-14T03:09:51.449Z,99.99
2018-04-14T03:10:59.539Z,99.99
2018-04-14T03:12:07.585Z,99.99
2018-04-14T03:13:15.661Z,99.99
2018-04-14T03:14:23.711Z,99.99
2018-04-14T03:15:31.754Z,99.99
2018-04-14T03:16:39.829Z,99.99
2018-04-14T03:17:47.886Z,99.99
2018-04-14T03:18:55.930Z,99.99
2018-04-14T03:20:03.989Z,99.99
2018-04-14T03:21:12.040Z,99.99
2018-04-14T03:22:20.099Z,99.99
2018-04-14T03:23:28.141Z,99.99
2018-04-14T03:24:36.218Z,99.99
2018-04-14T03:25:44.264Z,99.99
2018-04-14T03:26:52.324Z,99.99
2018-04-14T03:28:00.372Z,99.99
2018-04-14T03:29:08.427Z,99.99
2018-04-14T03:30:16.493Z,99.99
2018-04-14T03:31:24.543Z,99.99
2018-04-14T03:32:32.603Z,99.99
2018-04-14T03:33:40.657Z,99.99
2018-04-14T03:34:48.716Z,99.99
2018-04-14T03:35:56.771Z,99.99
2018-04-14T03:37:04.818Z,99.99
2018-04-14T03:38:12.873Z,99.99
2018-04-14T03:39:20.929Z,99.99
2018-04-14T03:40:28.987Z,99.99
2018-04-14T03:41:37.048Z,99.99
2018-04-14T03:42:45.100Z,99.99
2018-04-14T03:43:53.160Z,99.99
2018-04-14T03:45:01.195Z,99.99
2018-04-14T03:46:09.256Z,99.99
2018-04-14T03:47:17.326Z,99.99
2018-04-14T03:48:25.385Z,99.99
2018-04-14T03:49:33.435Z,99.99
2018-04-14T03:50:41.481Z,99.99
2018-04-14T03:51:49.551Z,99.99
2018-04-14T03:52:57.611Z,99.99
2018-04-14T03:54:05.671Z,99.99
2018-04-14T03:55:13.707Z,99.99
2018-04-14T03:56:21.764Z,99.99
2018-04-14T03:57:29.822Z,99.99
2018-04-14T03:58:37.881Z,99.99
2018-04-14T03:59:45.932Z,99.99
2018-04-14T04:00:53.996Z,99.99
2018-04-14T04:02:02.076Z,99.99
2018-04-14T04:03:10.106Z,99.99
2018-04-14T04:04:18.170Z,99.99
2018-04-14T04:05:26.223Z,99.99
2018-04-14T04:06:34.265Z,99.99
2018-04-14T04:07:42.340Z,99.99
2018-04-14T04:08:50.381Z,99.99
2018-04-14T04:09:58.449Z,99.99
2018-04-14T04:11:06.504Z,99.99
2018-04-14T04:12:14.565Z,99.99
2018-04-14T04:13:22.609Z,99.99
2018-04-14T04:14:30.668Z,99.99
2018-04-14T04:15:38.746Z,99.99
2018-04-14T04:16:46.777Z,99.99
2018-04-14T04:17:54.826Z,99.99
2018-04-14T04:19:02.894Z,99.99
2018-04-14T04:20:11.323Z,99.99
2018-04-14T04:21:19.001Z,99.99
2018-04-14T04:22:27.043Z,99.99
2018-04-14T04:23:35.118Z,99.99
2018-04-14T04:24:43.159Z,99.99
2018-04-14T04:25:51.197Z,99.99
2018-04-14T04:26:59.459Z,99.99
2018-04-14T04:28:07.401Z,99.99
2018-04-14T04:29:15.398Z,99.99
2018-04-14T04:30:23.440Z,99.99
2018-04-14T04:31:31.485Z,99.99
2018-04-14T04:32:39.570Z,99.99
2018-04-14T04:33:47.614Z,99.99
2018-04-14T04:34:56.057Z,99.99
2018-04-14T04:36:03.732Z,99.99
2018-04-14T04:37:11.761Z,99.99
2018-04-14T04:38:19.841Z,99.99
2018-04-14T04:39:27.904Z,99.99
2018-04-14T04:40:35.953Z,99.99
2018-04-14T04:41:43.995Z,99.99
2018-04-14T04:42:52.044Z,99.99
2018-04-14T04:44:00.115Z,99.99
2018-04-14T04:45:08.165Z,99.99
2018-04-14T04:46:16.231Z,99.99
2018-04-14T04:47:24.291Z,99.99
2018-04-14T04:48:32.335Z,99.99
2018-04-14T04:49:40.391Z,99.99
2018-04-14T04:50:48.445Z,99.99
2018-04-14T04:51:56.705Z,99.99
2018-04-14T04:53:04.569Z,99.99
2018-04-14T04:54:13.283Z,99.99
2018-04-14T04:55:20.676Z,99.99
2018-04-14T04:56:29.398Z,99.99
2018-04-14T04:57:37.354Z,99.99
2018-04-14T04:58:45.204Z,99.99
2018-04-14T04:59:53.542Z,99.99
2018-04-14T05:01:01.553Z,99.99
2018-04-14T05:02:10.546Z,99.99
2018-04-14T05:03:17.730Z,99.99
2018-04-14T05:04:25.777Z,99.99
2018-04-14T05:05:33.719Z,99.99
2018-04-14T05:06:41.744Z,99.99
2018-04-14T05:07:49.858Z,99.99
2018-04-14T05:08:57.950Z,99.99
2018-04-14T05:10:06.970Z,99.99
2018-04-14T05:11:14.106Z,99.99
2018-04-14T05:12:22.174Z,99.99
2018-04-14T05:13:30.220Z,99.99
2018-04-14T05:14:39.154Z,99.99
2018-04-14T05:15:45.981Z,99.99
2018-04-14T05:16:54.390Z,99.99
2018-04-14T05:18:02.457Z,99.99
2018-04-14T05:19:10.239Z,99.99
2018-04-14T05:20:18.357Z,99.99
2018-04-14T05:21:26.556Z,99.99
2018-04-14T05:22:34.622Z,99.99
2018-04-14T05:23:42.717Z,99.99
2018-04-14T05:24:50.469Z,99.99
2018-04-14T05:25:58.743Z,99.99
2018-04-14T05:27:06.842Z,99.99
2018-04-14T05:28:14.776Z,99.99
2018-04-14T05:29:22.943Z,99.99
2018-04-14T05:30:30.893Z,99.99
2018-04-14T05:31:39.101Z,99.99
2018-04-14T05:32:47.033Z,99.99
2018-04-14T05:33:54.941Z,99.99
2018-04-14T05:35:03.295Z,99.99
2018-04-14T05:36:11.218Z,99.99
2018-04-14T05:37:18.986Z,99.99
2018-04-14T05:38:27.449Z,99.99
2018-04-14T05:39:35.559Z,99.99
2018-04-14T05:40:43.325Z,99.99
2018-04-14T05:41:51.565Z,99.99
2018-04-14T05:42:59.658Z,99.99
2018-04-14T05:44:07.482Z,99.99
2018-04-14T05:45:15.407Z,99.99
2018-04-14T05:46:23.747Z,99.99
2018-04-14T05:47:31.916Z,99.99
2018-04-14T05:48:39.933Z,99.99
2018-04-14T05:49:47.989Z,99.99
2018-04-14T05:50:55.946Z,99.77
2018-04-14T05:52:04.323Z,98.92
2018-04-14T05:53:12.083Z,98.11
2018-04-14T05:54:20.173Z,97.83
2018-04-14T05:55:28.191Z,97.74
2018-04-14T05:56:36.287Z,95.84
2018-04-14T05:57:44.342Z,95.12
2018-04-14T05:58:52.435Z,93.04
2018-04-14T06:00:01.289Z,92.13
2018-04-14T06:01:08.483Z,92.13
2018-04-14T06:02:16.214Z,91.19
2018-04-14T06:03:24.586Z,91.09
2018-04-14T06:04:32.704Z,91.28
2018-04-14T06:05:40.710Z,91.19
2018-04-14T06:06:48.914Z,90.37
2018-04-14T06:07:56.879Z,90.47
2018-04-14T06:09:04.834Z,90.37
2018-04-14T06:10:12.936Z,88.85
2018-04-14T06:11:20.976Z,87.38
2018-04-14T06:12:29.143Z,87.09
2018-04-14T06:13:37.125Z,88.04
2018-04-14T06:14:45.220Z,88.13
2018-04-14T06:15:53.285Z,88.23
2018-04-14T06:17:01.221Z,88.33
2018-04-14T06:18:09.391Z,88.04
2018-04-14T06:19:17.368Z,87.90
2018-04-14T06:20:25.497Z,86.28
2018-04-14T06:21:33.671Z,85.14
2018-04-14T06:22:41.704Z,85.33
2018-04-14T06:23:49.678Z,85.61
2018-04-14T06:24:57.880Z,85.28
2018-04-14T06:26:05.796Z,85.28
2018-04-14T06:27:13.798Z,85.85
2018-04-14T06:28:21.970Z,86.90
2018-04-14T06:29:30.038Z,86.90
2018-04-14T06:30:38.071Z,86.22
2018-04-14T06:31:46.143Z,85.75
2018-04-14T06:32:54.182Z,85.75
2018-04-14T06:34:02.215Z,85.75
2018-04-14T06:35:10.334Z,85.32
2018-04-14T06:36:18.386Z,85.41
2018-04-14T06:37:26.455Z,84.84
2018-04-14T06:38:34.559Z,85.51
2018-04-14T06:39:42.637Z,85.32
2018-04-14T06:40:50.596Z,84.08
2018-04-14T06:41:58.664Z,83.03
2018-04-14T06:43:06.830Z,83.65
2018-04-14T06:44:14.803Z,82.98
2018-04-14T06:45:22.985Z,82.60
2018-04-14T06:46:31.030Z,82.41
2018-04-14T06:47:38.979Z,82.89
2018-04-14T06:48:47.134Z,81.59
2018-04-14T06:49:55.103Z,80.83
2018-04-14T06:51:03.152Z,81.78
2018-04-14T06:52:11.259Z,81.12
2018-04-14T06:53:19.335Z,81.49
2018-04-14T06:54:27.331Z,81.21
2018-04-14T06:55:35.389Z,79.88
2018-04-14T06:56:43.557Z,80.92
2018-04-14T06:57:50.985Z,80.83
2018-04-14T06:58:59.077Z,81.12
2018-04-14T07:00:07.151Z,79.49
2018-04-14T07:01:15.203Z,80.11
2018-04-14T07:02:23.269Z,79.06
2018-04-14T07:03:31.300Z,78.58
2018-04-14T07:04:39.382Z,78.67
2018-04-14T07:05:47.451Z,76.81
2018-04-14T07:06:55.509Z,77.19
2018-04-14T07:08:03.588Z,74.46
2018-04-14T07:09:11.655Z,72.87
2018-04-14T07:10:19.727Z,71.34
2018-04-14T07:11:27.778Z,71.28
2018-04-14T07:12:35.835Z,70.04
2018-04-14T07:13:43.908Z,70.20
2018-04-14T07:14:51.967Z,72.49
2018-04-14T07:16:00.040Z,72.49
2018-04-14T07:17:08.100Z,72.68
2018-04-14T07:18:16.161Z,71.25
2018-04-14T07:19:24.264Z,70.20
2018-04-14T07:20:32.349Z,70.67
2018-04-14T07:21:40.349Z,70.96
2018-04-14T07:22:48.419Z,70.58
2018-04-14T07:23:56.502Z,70.10
2018-04-14T07:25:04.559Z,68.67
2018-04-14T07:26:12.620Z,66.66
2018-04-14T07:27:20.682Z,66.00
2018-04-14T07:28:28.757Z,62.37
2018-04-14T07:29:36.795Z,66.00
2018-04-14T07:30:44.907Z,66.79
2018-04-14T07:31:52.956Z,64.50
2018-04-14T07:33:00.979Z,64.98
2018-04-14T07:34:09.083Z,64.50
2018-04-14T07:35:17.154Z,65.17
2018-04-14T07:36:25.208Z,62.87
2018-04-14T07:37:33.280Z,61.09
2018-04-14T07:38:41.304Z,60.52
2018-04-14T07:39:49.408Z,60.13
2018-04-14T07:40:57.465Z,58.89
2018-04-14T07:42:05.512Z,61.47
2018-04-14T07:43:13.595Z,59.11
2018-04-14T07:44:21.649Z,59.49
2018-04-14T07:45:29.731Z,62.37
2018-04-14T07:46:37.795Z,59.49
2018-04-14T07:47:45.865Z,59.30
2018-04-14T07:48:53.934Z,61.54
2018-04-14T07:50:01.998Z,56.84
2018-04-14T07:51:10.066Z,54.96
2018-04-14T07:52:18.128Z,55.05
2018-04-14T07:53:26.207Z,55.53
2018-04-14T07:54:34.266Z,54.28
2018-04-14T07:55:42.337Z,53.52
2018-04-14T07:56:50.409Z,52.87
2018-04-14T07:57:58.475Z,55.46
2018-04-14T07:59:06.523Z,52.14
2018-04-14T08:00:14.602Z,51.56
2018-04-14T08:01:22.672Z,51.46
2018-04-14T08:02:30.723Z,53.48
2018-04-14T08:03:38.810Z,53.48
2018-04-14T08:04:46.874Z,52.91
2018-04-14T08:05:54.932Z,49.07
2018-04-14T08:07:03.005Z,47.15
2018-04-14T08:08:11.049Z,48.02
2018-04-14T08:09:19.148Z,51.56
2018-04-14T08:10:27.255Z,49.93
2018-04-14T08:11:35.313Z,48.97
2018-04-14T08:12:43.363Z,51.56
2018-04-14T08:13:51.400Z,51.56
2018-04-14T08:14:59.520Z,51.28
2018-04-14T08:16:07.570Z,50.15
2018-04-14T08:17:15.639Z,50.51
2018-04-14T08:18:23.733Z,47.15
2018-04-14T08:19:31.785Z,49.48
2018-04-14T08:20:39.864Z,52.38
2018-04-14T08:21:47.942Z,53.05
2018-04-14T08:22:55.990Z,44.13
2018-04-14T08:24:04.047Z,42.21
2018-04-14T08:25:12.136Z,46.72
2018-04-14T08:26:20.196Z,51.51
2018-04-14T08:27:28.272Z,53.44
2018-04-14T08:28:36.335Z,56.70
2018-04-14T08:29:44.401Z,57.56
2018-04-14T08:30:52.514Z,56.98
2018-04-14T08:32:00.565Z,58.26
2018-04-14T08:33:08.611Z,58.36
2018-04-14T08:34:16.894Z,59.12
2018-04-14T08:35:25.000Z,59.22
2018-04-14T08:36:32.846Z,56.44
2018-04-14T08:37:40.885Z,57.30
2018-04-14T08:38:48.970Z,57.95
2018-04-14T08:39:57.041Z,56.89
2018-04-14T08:41:05.129Z,59.48
2018-04-14T08:42:13.216Z,58.52
2018-04-14T08:43:21.242Z,58.91
2018-04-14T08:44:29.342Z,58.26
2018-04-14T08:45:37.426Z,58.64
2018-04-14T08:46:45.473Z,59.03
2018-04-14T08:47:53.541Z,56.18
2018-04-14T08:49:01.592Z,57.78
2018-04-14T08:50:09.687Z,57.78
2018-04-14T08:51:17.762Z,58.74
2018-04-14T08:52:25.830Z,56.15
2018-04-14T08:53:33.904Z,57.85
2018-04-14T08:54:41.973Z,56.41
2018-04-14T08:55:50.036Z,56.89
2018-04-14T08:56:58.107Z,60.22
2018-04-14T08:58:06.187Z,57.18
2018-04-14T08:59:14.246Z,55.07
2018-04-14T09:00:22.320Z,58.04
2018-04-14T09:01:30.404Z,59.64
2018-04-14T09:02:38.465Z,58.01
2018-04-14T09:03:46.532Z,60.79
2018-04-14T09:04:54.621Z,61.18
2018-04-14T09:06:02.679Z,62.33
2018-04-14T09:07:10.737Z,59.29
2018-04-14T09:08:18.805Z,60.92
2018-04-14T09:09:26.890Z,58.04
2018-04-14T09:10:34.952Z,60.15
2018-04-14T09:11:43.021Z,59.29
2018-04-14T09:12:51.067Z,54.21
2018-04-14T09:13:59.149Z,55.23
2018-04-14T09:15:07.249Z,49.48
2018-04-14T09:16:15.298Z,50.15
2018-04-14T09:17:23.371Z,51.59
2018-04-14T09:18:31.404Z,55.04
2018-04-14T09:19:39.501Z,58.20
2018-04-14T09:20:47.571Z,56.96
2018-04-14T09:21:55.649Z,51.68
2018-04-14T09:23:03.702Z,50.65
2018-04-14T09:24:11.767Z,50.94
2018-04-14T09:25:19.838Z,48.43
2018-04-14T09:26:27.926Z,50.08
2018-04-14T09:27:35.987Z,55.74
2018-04-14T09:28:44.065Z,50.27
2018-04-14T09:29:52.109Z,56.51
2018-04-14T09:31:00.188Z,56.89
2018-04-14T09:32:08.254Z,55.55
2018-04-14T09:33:16.313Z,57.18
2018-04-14T09:34:24.385Z,55.16
2018-04-14T09:35:32.452Z,52.38
2018-04-14T09:36:40.519Z,53.15
2018-04-14T09:37:48.590Z,49.60
2018-04-14T09:38:56.653Z,55.16
2018-04-14T09:40:04.729Z,48.74
2018-04-14T09:41:12.801Z,45.47
2018-04-14T09:42:20.867Z,48.54
2018-04-14T09:43:28.936Z,49.60
2018-04-14T09:44:37.004Z,51.51
2018-04-14T09:45:45.068Z,50.17
2018-04-14T09:46:53.146Z,47.68
2018-04-14T09:48:01.193Z,43.74
2018-04-14T09:49:09.264Z,47.20
2018-04-14T09:50:17.346Z,51.81
2018-04-14T09:51:25.394Z,44.54
2018-04-14T09:52:33.480Z,44.44
2018-04-14T09:53:41.528Z,44.70
2018-04-14T09:54:49.650Z,43.07
2018-04-14T09:55:57.672Z,42.11
2018-04-14T09:57:05.772Z,39.81
2018-04-14T09:58:13.810Z,43.36
2018-04-14T09:59:21.886Z,45.18
2018-04-14T10:00:29.964Z,48.54
2018-04-14T10:01:38.011Z,48.07
2018-04-14T10:02:46.082Z,44.80
2018-04-14T10:03:54.151Z,47.20
2018-04-14T10:05:02.226Z,44.32
2018-04-14T10:06:10.301Z,44.70
2018-04-14T10:07:18.348Z,43.10
2018-04-14T10:08:26.422Z,45.95
2018-04-14T10:09:34.492Z,45.67
2018-04-14T10:10:42.554Z,44.80
2018-04-14T10:11:50.629Z,43.55
2018-04-14T10:12:58.691Z,43.65
2018-04-14T10:14:06.770Z,44.23
2018-04-14T10:15:14.829Z,42.02
2018-04-14T10:16:22.890Z,42.30
2018-04-14T10:17:30.944Z,48.64
2018-04-14T10:18:39.032Z,46.94
2018-04-14T10:19:47.093Z,45.40
2018-04-14T10:20:55.156Z,45.00
2018-04-14T10:22:03.260Z,41.06
2018-04-14T10:23:11.289Z,41.83
2018-04-14T10:24:19.368Z,44.61
2018-04-14T10:25:27.434Z,45.37
2018-04-14T10:26:35.492Z,44.06
2018-04-14T10:27:43.563Z,45.78
2018-04-14T10:28:51.618Z,46.17
2018-04-14T10:29:59.702Z,41.37
2018-04-14T10:31:07.770Z,45.21
2018-04-14T10:32:15.845Z,48.47
2018-04-14T10:33:23.901Z,45.11
2018-04-14T10:34:31.976Z,45.98
2018-04-14T10:35:40.047Z,43.57
2018-04-14T10:36:48.145Z,39.64
2018-04-14T10:37:56.217Z,41.94
2018-04-14T10:39:04.246Z,48.95
2018-04-14T10:40:12.304Z,43.07
2018-04-14T10:41:20.372Z,44.51
2018-04-14T10:42:28.439Z,46.43
2018-04-14T10:43:36.519Z,48.54
2018-04-14T10:44:44.589Z,49.05
2018-04-14T10:45:52.647Z,43.67
2018-04-14T10:47:00.714Z,40.79
2018-04-14T10:48:08.774Z,40.89
2018-04-14T10:49:16.864Z,43.55
2018-04-14T10:50:24.899Z,42.02
2018-04-14T10:51:32.981Z,41.54
2018-04-14T10:52:41.021Z,41.90
2018-04-14T10:53:49.124Z,42.00
2018-04-14T10:54:57.187Z,40.94
2018-04-14T10:56:05.255Z,41.90
2018-04-14T10:57:13.305Z,42.77
2018-04-14T10:58:21.357Z,43.05
2018-04-14T10:59:29.438Z,45.47
2018-04-14T11:00:37.525Z,47.10
2018-04-14T11:01:45.587Z,46.91
2018-04-14T11:02:53.653Z,46.05
2018-04-14T11:04:01.688Z,47.77
2018-04-14T11:05:09.805Z,44.34
2018-04-14T11:06:17.836Z,44.44
2018-04-14T11:07:25.919Z,43.67
2018-04-14T11:08:33.979Z,43.48
2018-04-14T11:09:42.051Z,47.32
2018-04-14T11:10:50.106Z,43.12
2018-04-14T11:11:58.207Z,41.17
2018-04-14T11:13:06.241Z,40.31
2018-04-14T11:14:14.314Z,39.64
2018-04-14T11:15:22.369Z,42.50
2018-04-14T11:16:30.452Z,44.61
2018-04-14T11:17:38.506Z,44.80
2018-04-14T11:18:46.577Z,41.06
2018-04-14T11:19:54.656Z,41.93
2018-04-14T11:21:02.717Z,41.44
2018-04-14T11:22:10.800Z,44.63
2018-04-14T11:23:18.844Z,43.67
2018-04-14T11:24:26.934Z,44.24
2018-04-14T11:25:34.985Z,43.60
2018-04-14T11:26:43.051Z,46.09
2018-04-14T11:27:51.100Z,44.75
2018-04-14T11:28:59.192Z,43.12
2018-04-14T11:30:07.254Z,37.66
2018-04-14T11:31:15.333Z,40.72
2018-04-14T11:32:23.386Z,42.35
2018-04-14T11:33:31.470Z,42.73
2018-04-14T11:34:39.523Z,43.79
2018-04-14T11:35:47.574Z,44.84
2018-04-14T11:36:55.657Z,42.83
2018-04-14T11:38:03.720Z,40.52
2018-04-14T11:39:11.761Z,40.72
2018-04-14T11:40:19.839Z,38.32
2018-04-14T11:41:27.912Z,38.89
2018-04-14T11:42:35.996Z,44.37
2018-04-14T11:43:44.098Z,44.65
2018-04-14T11:44:52.155Z,40.72
2018-04-14T11:46:00.197Z,41.20
2018-04-14T11:47:08.253Z,38.41
2018-04-14T11:48:16.323Z,39.35
2018-04-14T11:49:24.409Z,41.94
2018-04-14T11:50:32.457Z,41.46
2018-04-14T11:51:40.530Z,39.73
2018-04-14T11:52:48.590Z,40.79
2018-04-14T11:53:56.651Z,40.50
2018-04-14T11:55:04.725Z,42.13
2018-04-14T11:56:12.800Z,41.46
2018-04-14T11:57:20.871Z,41.37
2018-04-14T11:58:28.942Z,39.76
2018-04-14T11:59:36.989Z,44.34
2018-04-14T12:00:45.055Z,39.76
2018-04-14T12:01:53.134Z,38.41
2018-04-14T12:03:01.170Z,39.76
2018-04-14T12:04:09.254Z,39.95
2018-04-14T12:05:17.325Z,42.25
2018-04-14T12:06:25.402Z,40.81
2018-04-14T12:07:33.456Z,38.02
2018-04-14T12:08:41.512Z,43.21
2018-04-14T12:09:49.647Z,41.10
2018-04-14T12:10:57.667Z,45.61
2018-04-14T12:12:05.718Z,44.38
2018-04-14T12:13:13.804Z,42.47
2018-04-14T12:14:21.854Z,40.16
2018-04-14T12:15:29.932Z,40.23
2018-04-14T12:16:37.999Z,45.32
2018-04-14T12:17:46.071Z,45.83
2018-04-14T12:18:54.121Z,39.68
2018-04-14T12:20:02.200Z,40.93
2018-04-14T12:21:10.281Z,41.50
2018-04-14T12:22:18.320Z,43.71
2018-04-14T12:23:26.399Z,39.68
2018-04-14T12:24:34.468Z,40.55
2018-04-14T12:25:42.532Z,38.99
2018-04-14T12:26:54.600Z,39.85
2018-04-14T12:27:58.657Z,41.20
2018-04-14T12:29:06.736Z,40.33
2018-04-14T12:30:14.812Z,40.14
2018-04-14T12:31:22.860Z,40.81
2018-04-14T12:32:30.926Z,40.72
2018-04-14T12:33:38.993Z,39.56
2018-04-14T12:34:47.071Z,40.89
2018-04-14T12:35:55.139Z,40.79
2018-04-14T12:37:03.239Z,40.60
2018-04-14T12:38:11.240Z,40.31
2018-04-14T12:39:19.329Z,43.60
2018-04-14T12:40:27.419Z,43.12
2018-04-14T12:41:35.469Z,41.87
2018-04-14T12:42:43.525Z,41.10
2018-04-14T12:43:51.599Z,38.02
2018-04-14T12:44:59.668Z,37.55
2018-04-14T12:46:07.717Z,37.26
2018-04-14T12:47:15.797Z,38.87
2018-04-14T12:48:23.881Z,35.99
2018-04-14T12:49:31.919Z,40.41
2018-04-14T12:50:40.001Z,43.87
2018-04-14T12:51:48.054Z,42.13
2018-04-14T12:52:56.126Z,41.27
2018-04-14T12:54:04.208Z,41.49
2018-04-14T12:55:12.265Z,36.68
2018-04-14T12:56:20.316Z,37.07
2018-04-14T12:57:28.404Z,36.66
2018-04-14T12:58:36.467Z,34.84
2018-04-14T12:59:44.524Z,34.65
2018-04-14T13:00:52.595Z,36.09
2018-04-14T13:02:00.666Z,35.14
2018-04-14T13:03:08.722Z,35.71
2018-04-14T13:04:16.799Z,37.84
2018-04-14T13:05:24.878Z,39.37
2018-04-14T13:06:32.924Z,36.40
2018-04-14T13:07:40.979Z,36.68
2018-04-14T13:08:49.057Z,36.20
2018-04-14T13:09:57.137Z,34.86
2018-04-14T13:11:05.206Z,33.80
2018-04-14T13:12:13.283Z,35.34
2018-04-14T13:13:21.326Z,33.80
2018-04-14T13:14:29.405Z,35.82
2018-04-14T13:15:37.470Z,35.63
2018-04-14T13:16:45.529Z,33.80
2018-04-14T13:17:53.600Z,36.68
2018-04-14T13:19:01.712Z,35.36
2018-04-14T13:20:09.727Z,35.16
2018-04-14T13:21:17.814Z,36.22
2018-04-14T13:22:25.874Z,34.97
2018-04-14T13:23:33.944Z,33.82
2018-04-14T13:24:41.998Z,34.47
2018-04-14T13:25:50.068Z,34.67
2018-04-14T13:26:58.134Z,37.16
2018-04-14T13:28:06.203Z,34.19
2018-04-14T13:29:14.283Z,34.28
2018-04-14T13:30:22.325Z,34.67
2018-04-14T13:31:30.397Z,34.47
2018-04-14T13:32:38.544Z,33.80
2018-04-14T13:33:46.538Z,34.57
2018-04-14T13:34:54.605Z,35.14
2018-04-14T13:36:02.674Z,36.32
2018-04-14T13:37:10.735Z,36.41
2018-04-14T13:38:18.815Z,34.78
2018-04-14T13:39:26.878Z,33.82
2018-04-14T13:40:34.953Z,33.91
2018-04-14T13:41:43.003Z,32.95
2018-04-14T13:42:51.057Z,34.09
2018-04-14T13:43:59.156Z,33.80
2018-04-14T13:45:07.211Z,34.57
2018-04-14T13:46:15.287Z,34.57
2018-04-14T13:47:23.339Z,34.86
2018-04-14T13:48:31.385Z,40.14
2018-04-14T13:49:39.468Z,39.87
2018-04-14T13:50:47.556Z,36.60
2018-04-14T13:51:55.616Z,33.72
2018-04-14T13:53:03.683Z,36.80
2018-04-14T13:54:11.725Z,34.20
2018-04-14T13:55:19.820Z,33.05
2018-04-14T13:56:27.874Z,35.43
2018-04-14T13:57:35.964Z,35.14
2018-04-14T13:58:44.028Z,35.24
2018-04-14T13:59:52.088Z,38.70
2018-04-14T14:01:00.143Z,38.81
2018-04-14T14:02:08.209Z,40.35
2018-04-14T14:03:16.282Z,35.93
2018-04-14T14:04:24.350Z,37.49
2018-04-14T14:05:32.425Z,36.03
2018-04-14T14:06:40.535Z,36.32
2018-04-14T14:07:48.556Z,34.78
2018-04-14T14:08:56.627Z,35.36
2018-04-14T14:10:04.674Z,35.36
2018-04-14T14:11:12.776Z,36.03
2018-04-14T14:12:20.813Z,37.18
2018-04-14T14:13:28.896Z,35.64
2018-04-14T14:14:36.965Z,37.57
2018-04-14T14:15:45.021Z,35.83
2018-04-14T14:16:53.093Z,35.24
2018-04-14T14:18:01.130Z,37.16
2018-04-14T14:19:09.207Z,34.95
2018-04-14T14:20:17.288Z,35.14
2018-04-14T14:21:25.369Z,34.67
2018-04-14T14:22:33.414Z,35.34
2018-04-14T14:23:41.459Z,33.91
2018-04-14T14:24:49.564Z,34.09
2018-04-14T14:25:57.634Z,35.24
2018-04-14T14:27:05.696Z,34.67
2018-04-14T14:28:13.768Z,34.28
2018-04-14T14:29:21.826Z,34.76
2018-04-14T14:30:29.898Z,34.76
2018-04-14T14:31:37.963Z,34.67
2018-04-14T14:32:46.027Z,36.97
2018-04-14T14:33:54.096Z,34.97
2018-04-14T14:35:02.163Z,35.34
2018-04-14T14:36:10.276Z,35.14